createdAt,value
2022-09-20T00:01:08.441Z,98527.19
2022-09-20T00:03:37.568Z,98523.56
2022-09-20T00:06:09.078Z,98526.03
2022-09-20T00:08:37.288Z,98531.41
2022-09-20T00:11:07.214Z,98531.63
2022-09-20T00:13:36.556Z,98529.19
2022-09-20T00:16:07.286Z,98536.69
2022-09-20T00:18:35.512Z,98530.00
2022-09-20T00:21:04.113Z,98527.06
2022-09-20T00:23:33.839Z,98524.97
2022-09-20T00:26:03.498Z,98520.16
2022-09-20T00:28:33.687Z,98521.47
2022-09-20T00:31:02.198Z,98519.25
2022-09-20T00:33:50.450Z,98509.28
2022-09-20T00:36:17.410Z,98521.94
2022-09-20T00:38:46.668Z,98512.47
2022-09-20T00:41:16.125Z,98521.00
2022-09-20T00:43:45.730Z,98526.63
2022-09-20T00:46:21.865Z,98525.34
2022-09-20T00:48:50.964Z,98523.22
2022-09-20T00:51:24.975Z,98527.56
2022-09-20T00:53:56.832Z,98520.28
2022-09-20T00:56:28.428Z,98524.38
2022-09-20T00:59:01.027Z,98519.34
2022-09-20T01:01:29.011Z,98526.59
2022-09-20T01:03:57.382Z,98519.34
2022-09-20T01:06:25.372Z,98519.59
2022-09-20T01:08:56.230Z,98517.47
2022-09-20T01:11:24.207Z,98525.53
2022-09-20T01:13:52.053Z,98522.84
2022-09-20T01:16:20.544Z,98527.41
2022-09-20T01:18:49.535Z,98519.09
2022-09-20T01:21:18.636Z,98526.38
2022-09-20T01:23:55.635Z,98530.34
2022-09-20T01:26:47.281Z,98524.38
2022-09-20T01:29:27.793Z,98516.78
2022-09-20T01:31:58.212Z,98519.81
2022-09-20T01:34:29.894Z,98518.19
2022-09-20T01:37:02.675Z,98510.44
2022-09-20T01:39:36.182Z,98517.47
2022-09-20T01:42:07.538Z,98521.81
2022-09-20T01:44:40.602Z,98509.41
2022-09-20T01:47:13.208Z,98511.84
2022-09-20T01:49:48.084Z,98511.03
2022-09-20T01:53:02.206Z,98508.91
2022-09-20T01:55:48.520Z,98509.75
2022-09-20T01:58:50.516Z,98512.91
2022-09-20T02:01:43.353Z,98509.16
2022-09-20T02:04:29.658Z,98516.19
2022-09-20T02:07:10.538Z,98520.28
2022-09-20T02:09:52.174Z,98511.38
2022-09-20T02:12:51.260Z,98520.84
2022-09-20T02:15:36.475Z,98513.81
2022-09-20T02:18:17.331Z,98509.50
2022-09-20T02:20:52.025Z,98509.84
2022-09-20T02:23:35.433Z,98509.84
2022-09-20T02:26:24.502Z,98507.38
2022-09-20T02:29:01.416Z,98505.50
2022-09-20T02:31:38.247Z,98510.66
2022-09-20T02:34:24.164Z,98507.53
2022-09-20T02:37:00.825Z,98507.03
2022-09-20T02:39:35.417Z,98508.91
2022-09-20T02:42:06.158Z,98508.09
2022-09-20T02:44:48.671Z,98507.88
2022-09-20T02:47:24.274Z,98507.63
2022-09-20T02:50:04.663Z,98504.69
2022-09-20T02:52:37.728Z,98508.78
2022-09-20T02:55:10.910Z,98513.00
2022-09-20T02:57:46.552Z,98516.28
2022-09-20T03:00:16.384Z,98506.22
2022-09-20T03:02:52.360Z,98517.22
2022-09-20T03:05:27.005Z,98519.94
2022-09-20T03:08:04.143Z,98530.09
2022-09-20T03:10:39.143Z,98528.25
2022-09-20T03:13:22.229Z,98524.97
2022-09-20T03:15:59.523Z,98525.19
2022-09-20T03:18:36.566Z,98525.53
2022-09-20T03:21:16.913Z,98528.00
2022-09-20T03:23:54.913Z,98527.66
2022-09-20T03:26:33.590Z,98536.31
2022-09-20T03:29:05.289Z,98525.31
2022-09-20T03:32:00.301Z,98524.25
2022-09-20T03:34:38.665Z,98527.88
2022-09-20T03:37:30.340Z,98531.16
2022-09-20T03:40:13.353Z,98528.72
2022-09-20T03:42:46.200Z,98533.03
2022-09-20T03:45:36.710Z,98541.81
2022-09-20T03:48:27.119Z,98535.97
2022-09-20T03:51:23.988Z,98534.56
2022-09-20T03:54:19.943Z,98537.03
2022-09-20T03:57:00.439Z,98533.63
2022-09-20T03:59:49.126Z,98537.94
2022-09-20T04:02:30.195Z,98537.38
2022-09-20T04:05:00.653Z,98537.38
2022-09-20T04:07:37.785Z,98543.56
2022-09-20T04:10:30.740Z,98541.34
2022-09-20T04:13:09.241Z,98546.16
2022-09-20T04:15:46.206Z,98546.16
2022-09-20T04:18:21.659Z,98547.56
2022-09-20T04:20:53.990Z,98544.88
2022-09-20T04:23:35.096Z,98544.28
2022-09-20T04:26:04.940Z,98547.22
2022-09-20T04:28:38.104Z,98541.47
2022-09-20T04:31:13.744Z,98552.00
2022-09-20T04:33:47.166Z,98548.06
2022-09-20T04:36:30.490Z,98547.13
2022-09-20T04:39:12.118Z,98549.47
2022-09-20T04:41:57.910Z,98552.28
2022-09-20T04:44:45.995Z,98551.69
2022-09-20T04:47:33.065Z,98560.94
2022-09-20T04:50:26.681Z,98552.19
2022-09-20T04:53:25.913Z,98554.97
2022-09-20T04:55:57.301Z,98563.28
2022-09-20T04:58:40.706Z,98561.72
2022-09-20T05:01:33.415Z,98573.09
2022-09-20T05:04:47.440Z,98580.22
2022-09-20T05:07:50.759Z,98587.56
2022-09-20T05:10:42.194Z,98593.19
2022-09-20T05:13:15.913Z,98594.47
2022-09-20T05:15:53.068Z,98587.78
2022-09-20T05:19:04.056Z,98584.63
2022-09-20T05:21:51.694Z,98592.22
2022-09-20T05:24:33.096Z,98598.66
2022-09-20T05:27:13.937Z,98589.66
2022-09-20T05:29:49.175Z,98599.69
2022-09-20T05:32:24.002Z,98596.19
2022-09-20T05:34:56.012Z,98597.38
2022-09-20T05:37:32.038Z,98597.63
2022-09-20T05:40:04.508Z,98596.81
2022-09-20T05:42:39.277Z,98599.13
2022-09-20T05:45:21.643Z,98607.19
2022-09-20T05:47:56.750Z,98602.28
2022-09-20T05:50:35.786Z,98599.59
2022-09-20T05:53:12.342Z,98604.16
2022-09-20T05:56:04.638Z,98612.81
2022-09-20T05:58:48.964Z,98616.22
2022-09-20T06:01:21.443Z,98618.66
2022-09-20T06:03:55.926Z,98623.81
2022-09-20T06:06:32.690Z,98630.97
2022-09-20T06:09:31.936Z,98627.44
2022-09-20T06:12:08.986Z,98619.38
2022-09-20T06:14:47.440Z,98620.78
2022-09-20T06:17:24.742Z,98623.84
2022-09-20T06:20:05.973Z,98624.66
2022-09-20T06:22:35.799Z,98622.44
2022-09-20T06:25:11.805Z,98635.19
2022-09-20T06:27:44.372Z,98634.59
2022-09-20T06:30:18.926Z,98634.72
2022-09-20T06:32:57.824Z,98632.13
2022-09-20T06:35:32.293Z,98636.81
2022-09-20T06:38:25.137Z,98630.03
2022-09-20T06:41:16.285Z,98636.81
2022-09-20T06:43:44.372Z,98633.31
2022-09-20T06:46:13.043Z,98634.38
2022-09-20T06:48:41.167Z,98646.31
2022-09-20T06:51:11.128Z,98644.94
2022-09-20T06:53:41.878Z,98636.50
2022-09-20T06:56:11.507Z,98648.81
2022-09-20T06:58:39.416Z,98642.97
2022-09-20T07:01:07.401Z,98651.72
2022-09-20T07:03:35.249Z,98647.41
2022-09-20T07:06:04.498Z,98654.19
2022-09-20T07:08:35.099Z,98646.34
2022-09-20T07:11:09.175Z,98643.03
2022-09-20T07:13:37.566Z,98636.16
2022-09-20T07:16:07.682Z,98642.81
2022-09-20T07:18:36.288Z,98651.72
2022-09-20T07:21:06.310Z,98655.47
2022-09-20T07:23:36.136Z,98662.47
2022-09-20T07:26:04.277Z,98655.22
2022-09-20T07:28:33.927Z,98670.31
2022-09-20T07:31:01.781Z,98661.53
2022-09-20T07:33:29.722Z,98667.41
2022-09-20T07:35:57.626Z,98666.81
2022-09-20T07:38:25.573Z,98653.34
2022-09-20T07:40:59.799Z,98664.25
2022-09-20T07:43:28.297Z,98666.34
2022-09-20T07:45:58.099Z,98667.03
2022-09-20T07:48:28.237Z,98670.41
2022-09-20T07:50:57.397Z,98678.91
2022-09-20T07:53:25.357Z,98669.81
2022-09-20T07:56:02.981Z,98678.25
2022-09-20T07:58:34.026Z,98675.13
2022-09-20T08:01:04.169Z,98682.25
2022-09-20T08:03:33.282Z,98678.66
2022-09-20T08:06:02.153Z,98679.25
2022-09-20T08:08:32.810Z,98686.38
2022-09-20T08:11:06.754Z,98684.41
2022-09-20T08:16:25.968Z,98692.13
2022-09-20T08:18:57.296Z,98695.88
2022-09-20T08:21:27.261Z,98691.63
2022-09-20T08:23:55.284Z,98693.53
2022-09-20T08:26:25.732Z,98692.38
2022-09-20T08:28:54.681Z,98686.16
2022-09-20T08:31:24.587Z,98692.69
2022-09-20T08:33:54.254Z,98693.19
2022-09-20T08:36:24.777Z,98694.25
2022-09-20T08:41:46.066Z,98686.72
2022-09-20T08:44:18.417Z,98683.53
2022-09-20T08:46:48.942Z,98687.22
2022-09-20T08:49:22.958Z,98685.81
2022-09-20T08:51:52.057Z,98676.59
2022-09-20T08:54:20.058Z,98680.28
2022-09-20T08:56:51.214Z,98683.56
2022-09-20T08:59:21.109Z,98683.59
2022-09-20T09:01:49.871Z,98681.38
2022-09-20T09:04:21.448Z,98683.75
2022-09-20T09:06:50.033Z,98674.88
2022-09-20T09:09:20.808Z,98676.78
2022-09-20T09:11:50.445Z,98679.72
2022-09-20T09:14:43.471Z,98678.63
2022-09-20T09:17:12.963Z,98679.72
2022-09-20T09:19:46.243Z,98686.13
2022-09-20T09:22:20.866Z,98678.84
2022-09-20T09:25:09.914Z,98671.78
2022-09-20T09:27:51.807Z,98675.88
2022-09-20T09:30:22.834Z,98670.53
2022-09-20T09:32:51.019Z,98673.72
2022-09-20T09:35:26.699Z,98665.09
2022-09-20T09:37:57.505Z,98662.81
2022-09-20T09:40:26.135Z,98668.84
2022-09-20T09:42:57.565Z,98667.53
2022-09-20T09:45:29.295Z,98664.97
2022-09-20T09:47:58.977Z,98659.41
2022-09-20T09:50:30.503Z,98666.94
2022-09-20T09:53:03.030Z,98666.81
2022-09-20T09:55:54.113Z,98665.22
2022-09-20T09:58:32.361Z,98659.13
2022-09-20T10:01:02.557Z,98662.28
2022-09-20T10:03:39.461Z,98664.38
2022-09-20T10:06:14.701Z,98669.63
2022-09-20T10:08:51.083Z,98661.91
2022-09-20T10:11:28.686Z,98666.09
2022-09-20T10:14:03.649Z,98670.31
2022-09-20T10:16:39.109Z,98664.03
2022-09-20T10:19:11.603Z,98663.00
2022-09-20T10:21:45.222Z,98665.84
2022-09-20T10:24:21.234Z,98660.03
2022-09-20T10:27:03.575Z,98663.56
2022-09-20T10:29:46.384Z,98657.34
2022-09-20T10:32:26.513Z,98653.31
2022-09-20T10:35:09.491Z,98663.19
2022-09-20T10:37:49.592Z,98657.66
2022-09-20T10:40:26.522Z,98649.75
2022-09-20T10:43:17.122Z,98665.41
2022-09-20T10:48:49.730Z,98658.00
2022-09-20T10:51:26.343Z,98660.66
2022-09-20T10:54:02.437Z,98657.19
2022-09-20T10:56:33.537Z,98657.44
2022-09-20T10:59:23.806Z,98663.91
2022-09-20T11:02:03.515Z,98658.75
2022-09-20T11:04:41.254Z,98660.69
2022-09-20T11:07:13.545Z,98666.13
2022-09-20T11:09:45.087Z,98658.75
2022-09-20T11:12:17.188Z,98659.59
2022-09-20T11:14:49.986Z,98650.94
2022-09-20T11:17:25.043Z,98659.06
2022-09-20T11:19:57.554Z,98661.34
2022-09-20T11:22:32.945Z,98659.19
2022-09-20T11:25:05.251Z,98644.41
2022-09-20T11:27:35.889Z,98648.56
2022-09-20T11:30:08.455Z,98640.75
2022-09-20T11:32:42.356Z,98654.66
2022-09-20T11:35:23.328Z,98637.06
2022-09-20T11:37:55.365Z,98649.56
2022-09-20T11:40:27.954Z,98642.53
2022-09-20T11:42:58.186Z,98638.28
2022-09-20T11:45:28.549Z,98642.34
2022-09-20T11:48:00.069Z,98640.47
2022-09-20T11:51:12.770Z,98622.56
2022-09-20T11:53:59.345Z,98629.09
2022-09-20T11:56:28.631Z,98633.44
2022-09-20T11:58:57.690Z,98634.75
2022-09-20T12:01:28.909Z,98629.50
2022-09-20T12:04:14.556Z,98631.06
2022-09-20T12:06:48.013Z,98631.53
2022-09-20T12:09:24.728Z,98634.78
2022-09-20T12:11:53.509Z,98631.78
2022-09-20T12:14:25.570Z,98622.50
2022-09-20T12:16:54.374Z,98624.41
2022-09-20T12:19:40.146Z,98622.25
2022-09-20T12:22:29.668Z,98628.81
2022-09-20T12:25:34.864Z,98614.19
2022-09-20T12:28:05.572Z,98624.31
2022-09-20T12:30:33.960Z,98615.66
2022-09-20T12:33:02.304Z,98624.31
2022-09-20T12:36:16.204Z,98631.03
2022-09-20T12:38:49.784Z,98615.34
2022-09-20T12:41:28.178Z,98617.84
2022-09-20T12:44:00.025Z,98610.78
2022-09-20T12:46:33.130Z,98618.94
2022-09-20T12:50:00.649Z,98614.84
2022-09-20T12:52:54.070Z,98621.59
2022-09-20T12:55:38.426Z,98633.13
2022-09-20T12:58:11.099Z,98631.41
2022-09-20T13:00:42.703Z,98636.44
2022-09-20T13:03:28.471Z,98637.97
2022-09-20T13:06:25.260Z,98635.16
2022-09-20T13:09:09.428Z,98630.22
2022-09-20T13:11:41.166Z,98636.75
2022-09-20T13:14:13.742Z,98634.91
2022-09-20T13:16:49.055Z,98638.50
2022-09-20T13:19:19.500Z,98638.13
2022-09-20T13:21:54.893Z,98635.50
2022-09-20T13:24:27.017Z,98635.44
2022-09-20T13:27:02.650Z,98633.28
2022-09-20T13:29:34.895Z,98639.22
2022-09-20T13:32:18.000Z,98620.31
2022-09-20T13:34:48.158Z,98624.38
2022-09-20T13:37:21.967Z,98619.25
2022-09-20T13:39:57.940Z,98614.75
2022-09-20T13:42:26.383Z,98615.66
2022-09-20T13:44:54.212Z,98612.19
2022-09-20T13:47:26.726Z,98622.00
2022-09-20T13:49:55.857Z,98619.03
2022-09-20T13:52:25.666Z,98613.88
2022-09-20T13:54:56.355Z,98614.13
2022-09-20T13:57:27.632Z,98614.34
2022-09-20T13:59:57.166Z,98608.88
2022-09-20T14:02:28.508Z,98609.91
2022-09-20T14:04:57.839Z,98611.22
2022-09-20T14:07:28.142Z,98606.00
2022-09-20T14:09:58.999Z,98610.28
2022-09-20T14:12:28.135Z,98614.09
2022-09-20T14:14:56.352Z,98615.72
2022-09-20T14:17:25.815Z,98609.75
2022-09-20T14:19:55.625Z,98611.63
2022-09-20T14:22:27.136Z,98611.38
2022-09-20T14:25:02.836Z,98610.84
2022-09-20T14:27:33.806Z,98618.41
2022-09-20T14:30:03.848Z,98620.03
2022-09-20T14:32:40.845Z,98613.47
2022-09-20T14:35:17.492Z,98610.22
2022-09-20T14:37:48.235Z,98616.13
2022-09-20T14:40:25.673Z,98618.28
2022-09-20T14:42:57.324Z,98615.78
2022-09-20T14:45:31.573Z,98618.66
2022-09-20T14:48:09.575Z,98630.91
2022-09-20T14:50:40.268Z,98634.31
2022-09-20T14:53:26.673Z,98623.94
2022-09-20T14:56:08.949Z,98627.19
2022-09-20T14:59:10.257Z,98631.78
2022-09-20T15:01:41.216Z,98623.88
2022-09-20T15:04:10.842Z,98624.13
2022-09-20T15:06:40.152Z,98623.88
2022-09-20T15:09:08.242Z,98630.88
2022-09-20T15:11:37.542Z,98634.13
2022-09-20T15:14:05.858Z,98627.84
2022-09-20T15:16:34.764Z,98629.75
2022-09-20T15:19:02.828Z,98626.19
2022-09-20T15:21:30.656Z,98633.78
2022-09-20T15:23:58.465Z,98631.69
2022-09-20T15:26:26.293Z,98627.63
2022-09-20T15:28:55.871Z,98624.47
2022-09-20T15:31:23.716Z,98625.97
2022-09-20T15:33:51.756Z,98630.06
2022-09-20T15:36:19.707Z,98630.16
2022-09-20T15:38:47.648Z,98625.56
2022-09-20T15:41:15.638Z,98629.41
2022-09-20T15:43:44.160Z,98626.44
2022-09-20T15:46:20.981Z,98625.91
2022-09-20T15:48:49.130Z,98627.00
2022-09-20T15:51:17.632Z,98620.50
2022-09-20T15:53:46.915Z,98622.09
2022-09-20T15:56:17.538Z,98619.38
2022-09-20T15:58:47.347Z,98612.06
2022-09-20T16:01:16.758Z,98619.38
2022-09-20T16:03:46.941Z,98621.50
2022-09-20T16:06:15.018Z,98623.16
2022-09-20T16:08:44.053Z,98626.13
2022-09-20T16:11:14.466Z,98628.84
2022-09-20T16:13:42.712Z,98626.13
2022-09-20T16:16:13.158Z,98621.78
2022-09-20T16:19:00.161Z,98621.56
2022-09-20T16:21:29.706Z,98627.50
2022-09-20T16:23:58.582Z,98630.75
2022-09-20T16:26:27.576Z,98624.50
2022-09-20T16:28:56.383Z,98640.22
2022-09-20T16:31:39.975Z,98634.72
2022-09-20T16:34:12.768Z,98639.84
2022-09-20T16:36:43.448Z,98634.59
2022-09-20T16:39:12.029Z,98642.31
2022-09-20T16:41:40.688Z,98645.22
2022-09-20T16:44:08.807Z,98642.72
2022-09-20T16:46:37.442Z,98641.66
2022-09-20T16:49:07.252Z,98647.97
2022-09-20T16:51:37.078Z,98645.59
2022-09-20T16:54:10.811Z,98644.09
2022-09-20T16:56:39.796Z,98652.97
2022-09-20T16:59:09.228Z,98654.00
2022-09-20T17:01:38.218Z,98645.56
2022-09-20T17:04:06.788Z,98647.09
2022-09-20T17:06:35.633Z,98651.38
2022-09-20T17:09:03.816Z,98652.69
2022-09-20T17:11:34.664Z,98651.00
2022-09-20T17:14:02.898Z,98656.38
2022-09-20T17:16:32.133Z,98654.75
2022-09-20T17:19:01.984Z,98664.69
2022-09-20T17:21:31.220Z,98670.03
2022-09-20T17:24:00.676Z,98674.31
2022-09-20T17:26:31.454Z,98674.19
2022-09-20T17:29:02.192Z,98675.63
2022-09-20T17:31:33.697Z,98672.75
2022-09-20T17:34:02.400Z,98676.19
2022-09-20T17:36:32.205Z,98677.59
2022-09-20T17:39:04.206Z,98693.97
2022-09-20T17:41:33.743Z,98687.44
2022-09-20T17:44:08.028Z,98693.50
2022-09-20T17:46:37.361Z,98695.00
2022-09-20T17:49:07.409Z,98696.31
2022-09-20T17:51:37.025Z,98697.78
2022-09-20T17:54:05.289Z,98698.81
2022-09-20T17:56:33.509Z,98706.31
2022-09-20T17:59:04.116Z,98706.97
2022-09-20T18:01:33.566Z,98712.88
2022-09-20T18:04:04.033Z,98715.56
2022-09-20T18:06:33.721Z,98725.22
2022-09-20T18:09:02.743Z,98730.03
2022-09-20T18:11:32.729Z,98718.34
2022-09-20T18:14:02.625Z,98725.78
2022-09-20T18:16:31.030Z,98736.25
2022-09-20T18:18:59.844Z,98729.94
2022-09-20T18:21:28.939Z,98731.47
2022-09-20T18:23:57.344Z,98731.72
2022-09-20T18:26:27.014Z,98740.78
2022-09-20T18:28:57.554Z,98739.53
2022-09-20T18:31:29.939Z,98740.69
2022-09-20T18:33:59.715Z,98748.19
2022-09-20T18:36:28.274Z,98753.59
2022-09-20T18:38:57.585Z,98752.28
2022-09-20T18:41:27.033Z,98759.88
2022-09-20T18:43:56.035Z,98752.03
2022-09-20T18:46:27.446Z,98760.03
2022-09-20T18:48:58.278Z,98755.88
2022-09-20T18:51:28.827Z,98770.19
2022-09-20T18:53:57.093Z,98774.44
2022-09-20T18:56:27.511Z,98772.78
2022-09-20T18:58:58.214Z,98772.09
2022-09-20T19:02:04.796Z,98774.81
2022-09-20T19:05:08.533Z,98780.31
2022-09-20T19:07:45.117Z,98781.16
2022-09-20T19:10:22.771Z,98783.72
2022-09-20T19:12:56.034Z,98787.38
2022-09-20T19:15:51.683Z,98791.25
2022-09-20T19:18:29.506Z,98793.13
2022-09-20T19:21:03.044Z,98803.22
2022-09-20T19:23:41.218Z,98809.56
2022-09-20T19:26:14.028Z,98809.22
2022-09-20T19:28:45.486Z,98811.91
2022-09-20T19:31:21.230Z,98816.94
2022-09-20T19:33:49.726Z,98822.22
2022-09-20T19:36:21.942Z,98820.91
2022-09-20T19:38:59.261Z,98819.03
2022-09-20T19:41:34.151Z,98818.00
2022-09-20T19:44:14.367Z,98824.19
2022-09-20T19:46:50.385Z,98825.59
2022-09-20T19:49:22.237Z,98829.47
2022-09-20T19:51:53.706Z,98828.75
2022-09-20T19:54:22.074Z,98829.13
2022-09-20T19:56:54.867Z,98835.78
2022-09-20T19:59:24.148Z,98828.75
2022-09-20T20:01:52.589Z,98822.44
2022-09-20T20:04:21.018Z,98833.56
2022-09-20T20:06:57.982Z,98827.59
2022-09-20T20:09:33.365Z,98827.00
2022-09-20T20:12:05.759Z,98832.16
2022-09-20T20:14:40.173Z,98830.97
2022-09-20T20:17:20.725Z,98834.13
2022-09-20T20:19:58.258Z,98836.81
2022-09-20T20:22:38.168Z,98834.47
2022-09-20T20:25:11.743Z,98837.06
2022-09-20T20:27:41.748Z,98840.66
2022-09-20T20:30:11.889Z,98841.34
2022-09-20T20:32:40.507Z,98849.44
2022-09-20T20:35:11.948Z,98845.31
2022-09-20T20:37:41.171Z,98847.44
2022-09-20T20:40:12.267Z,98842.16
2022-09-20T20:42:40.274Z,98840.13
2022-09-20T20:45:09.019Z,98840.91
2022-09-20T20:47:37.157Z,98845.00
2022-09-20T20:50:06.276Z,98849.66
2022-09-20T20:52:34.572Z,98848.25
2022-09-20T20:55:03.876Z,98848.25
2022-09-20T20:57:32.034Z,98844.66
2022-09-20T21:00:00.837Z,98841.81
2022-09-20T21:02:28.690Z,98842.63
2022-09-20T21:04:56.529Z,98842.63
2022-09-20T21:07:24.868Z,98847.25
2022-09-20T21:09:52.896Z,98847.25
2022-09-20T21:12:22.361Z,98849.56
2022-09-20T21:14:50.417Z,98845.38
2022-09-20T21:17:18.577Z,98845.84
2022-09-20T21:19:46.900Z,98845.91
2022-09-20T21:22:15.143Z,98847.50
2022-09-20T21:24:43.145Z,98847.81
2022-09-20T21:27:11.661Z,98853.41
2022-09-20T21:29:40.831Z,98852.38
2022-09-20T21:32:08.846Z,98852.13
2022-09-20T21:34:36.930Z,98859.59
2022-09-20T21:37:04.813Z,98853.41
2022-09-20T21:39:32.972Z,98860.88
2022-09-20T21:42:00.726Z,98858.63
2022-09-20T21:44:28.740Z,98853.41
2022-09-20T21:46:58.185Z,98858.06
2022-09-20T21:49:26.239Z,98851.03
2022-09-20T21:51:54.244Z,98863.13
2022-09-20T21:54:22.151Z,98856.84
2022-09-20T21:56:50.557Z,98853.63
2022-09-20T21:59:18.651Z,98854.72
2022-09-20T22:01:46.587Z,98849.19
2022-09-20T22:04:15.834Z,98855.44
2022-09-20T22:06:44.375Z,98860.03
2022-09-20T22:09:14.092Z,98854.13
2022-09-20T22:11:43.685Z,98846.13
2022-09-20T22:14:12.183Z,98844.56
2022-09-20T22:16:41.193Z,98847.47
2022-09-20T22:19:11.351Z,98838.97
2022-09-20T22:21:42.068Z,98851.75
2022-09-20T22:24:11.537Z,98846.50
2022-09-20T22:26:40.874Z,98840.09
2022-09-20T22:29:09.537Z,98838.84
2022-09-20T22:31:41.396Z,98834.06
2022-09-20T22:34:09.180Z,98839.00
2022-09-20T22:36:38.600Z,98830.50
2022-09-20T22:39:10.559Z,98831.50
2022-09-20T22:41:39.366Z,98832.25
2022-09-20T22:44:07.228Z,98839.44
2022-09-20T22:46:35.822Z,98845.63
2022-09-20T22:49:05.552Z,98845.03
2022-09-20T22:51:34.396Z,98848.53
2022-09-20T22:54:06.528Z,98848.09
2022-09-20T22:56:36.600Z,98843.97
2022-09-20T22:59:06.087Z,98846.28
2022-09-20T23:01:35.376Z,98854.91
2022-09-20T23:04:06.287Z,98850.94
2022-09-20T23:06:36.211Z,98846.63
2022-09-20T23:09:06.341Z,98850.34
2022-09-20T23:11:36.447Z,98855.94
2022-09-20T23:14:06.018Z,98856.16
2022-09-20T23:16:35.975Z,98850.03
2022-09-20T23:19:05.854Z,98848.38
2022-09-20T23:21:34.238Z,98848.97
2022-09-20T23:24:03.769Z,98844.44
2022-09-20T23:26:33.773Z,98849.81
2022-09-20T23:29:04.945Z,98849.88
2022-09-20T23:31:34.823Z,98851.16
2022-09-20T23:34:04.268Z,98857.34
2022-09-20T23:36:34.505Z,98853.38
2022-09-20T23:39:02.659Z,98857.69
2022-09-20T23:41:30.773Z,98859.56
2022-09-20T23:43:58.853Z,98851.75
2022-09-20T23:46:28.398Z,98860.63
2022-09-20T23:48:56.307Z,98857.59
2022-09-20T23:51:25.771Z,98865.22
2022-09-20T23:53:56.078Z,98861.72
2022-09-20T23:56:24.200Z,98858.22
2022-09-20T23:58:52.314Z,98859.25
